createdAt,value
2018-03-17T10:36:51.966Z,7120.00
2018-03-17T10:38:01.115Z,7252.00
2018-03-17T10:39:48.457Z,7044.00
2018-03-17T10:42:11.864Z,7480.00
2018-03-17T10:43:11.955Z,7200.00
2018-03-17T10:45:34.879Z,7516.00
2018-03-17T10:47:58.491Z,7412.00
2018-03-17T10:50:20.901Z,7348.00
2018-03-17T10:53:15.102Z,7572.00
2018-03-17T10:55:40.495Z,8352.00
2018-03-17T10:58:00.907Z,8160.00
2018-03-17T11:00:25.582Z,8896.00
2018-03-17T11:02:47.233Z,8260.00
2018-03-17T11:03:56.001Z,8484.00
2018-03-17T11:05:44.883Z,8312.00
2018-03-17T11:06:51.753Z,8720.00
2018-03-17T11:08:36.894Z,9264.00
2018-03-17T11:11:02.647Z,9444.00
2018-03-17T11:13:25.929Z,9948.00
2018-03-17T11:14:26.753Z,9476.00
2018-03-17T11:16:49.251Z,9108.00
2018-03-17T11:17:50.705Z,9440.00
2018-03-17T11:20:12.142Z,8592.00
2018-03-17T11:22:40.054Z,8924.00
2018-03-17T11:25:02.498Z,8784.00
2018-03-17T11:26:13.969Z,9724.00
2018-03-17T11:28:24.846Z,9872.00
2018-03-17T11:29:34.854Z,9220.00
2018-03-17T11:31:19.872Z,8704.00
2018-03-17T11:33:42.428Z,8788.00
2018-03-17T11:36:05.164Z,8676.00
2018-03-17T11:37:05.239Z,8532.00
2018-03-17T11:38:05.156Z,8396.00
2018-03-17T11:39:04.963Z,7916.00
2018-03-17T11:40:04.755Z,7488.00
2018-03-17T11:42:28.638Z,6924.00
2018-03-17T11:43:27.716Z,7192.00
2018-03-17T11:44:36.963Z,7632.00
2018-03-17T11:46:23.773Z,8592.00
2018-03-17T11:48:47.498Z,8696.00
2018-03-17T11:49:47.556Z,8256.00
2018-03-17T11:52:11.252Z,7916.00
2018-03-17T11:53:11.129Z,7456.00
2018-03-17T11:55:33.412Z,7764.00
2018-03-17T11:56:32.398Z,8516.00
2018-03-17T11:57:32.238Z,8904.00
2018-03-17T12:00:01.372Z,8764.00
2018-03-17T12:02:20.241Z,9716.00
2018-03-17T12:03:28.265Z,9704.00
2018-03-17T12:05:14.478Z,9884.00
2018-03-17T12:07:38.494Z,8756.00
2018-03-17T12:08:50.571Z,9040.00
2018-03-17T12:10:34.410Z,7960.00
2018-03-17T12:11:32.306Z,8408.00
2018-03-17T12:12:33.285Z,8616.00
2018-03-17T12:14:55.534Z,7328.00
2018-03-17T12:15:54.910Z,6516.00
2018-03-17T12:18:17.104Z,6732.00
2018-03-17T12:20:39.640Z,6768.00
2018-03-17T12:21:39.548Z,7100.00
2018-03-17T12:24:03.988Z,7776.00
2018-03-17T12:26:28.113Z,7184.00
2018-03-17T12:28:51.684Z,5912.00
2018-03-17T12:31:44.633Z,6636.00
2018-03-17T12:32:44.540Z,7344.00
2018-03-17T12:35:08.567Z,7452.00
2018-03-17T12:36:10.240Z,7832.00
2018-03-17T12:38:30.948Z,6964.00
2018-03-17T12:40:53.323Z,6572.00
2018-03-17T12:43:24.741Z,8036.00
2018-03-17T12:44:17.369Z,7512.00
2018-03-17T12:45:16.058Z,7268.00
2018-03-17T12:47:39.688Z,6920.00
2018-03-17T12:48:39.594Z,6952.00
2018-03-17T12:51:02.192Z,8148.00
2018-03-17T12:53:25.785Z,7164.00
2018-03-17T12:54:34.391Z,6376.00
2018-03-17T12:56:22.213Z,6616.00
2018-03-17T12:57:21.109Z,6760.00
2018-03-17T12:58:22.289Z,6980.00
2018-03-17T12:59:30.241Z,7052.00
2018-03-17T13:01:16.708Z,6788.00
2018-03-17T13:03:38.896Z,6660.00
2018-03-17T13:04:47.361Z,6872.00
2018-03-17T13:07:01.678Z,6676.00
2018-03-17T13:08:01.848Z,6688.00
2018-03-17T13:10:25.634Z,6156.00
2018-03-17T13:11:27.118Z,6480.00
2018-03-17T13:13:48.938Z,6196.00
2018-03-17T13:16:12.251Z,5624.00
2018-03-17T13:17:12.712Z,5620.00
2018-03-17T13:19:37.147Z,5408.00
2018-03-17T13:22:00.721Z,6668.00
2018-03-17T13:23:02.046Z,6656.00
2018-03-17T13:25:23.251Z,6964.00
2018-03-17T13:27:47.978Z,6312.00
